Time;durP1;ratioP1;P1;durP2;ratioP2;P2;SDS_P1;SDS_P2;PMS_P1;PMS_P2;Temp;Humidity;BMP_temperature;BMP_pressure;BME280_temperature;BME280_humidity;BME280_pressure;Samples;Min_cycle;Max_cycle;Signal;HPM_P1;HPM_P2
2022/04/17 00:02:06;;;;;;;9.85;6.10;;;5.90;99.90;;;;;;4769754;30;20063;-69
2022/04/17 00:04:53;;;;;;;6.35;5.57;;;5.80;99.90;;;;;;4755386;30;20063;-69
2022/04/17 00:08:20;;;;;;;7.85;5.93;;;5.90;99.90;;;;;;4754308;30;20059;-69
2022/04/17 00:26:19;;;;;;;8.23;6.25;;;5.40;99.90;;;;;;4802627;29;20042;-69
2022/04/17 00:52:43;;;;;;;;;;;5.20;99.90;;;;;;5142904;24;20078;-68
2022/04/17 01:07:33;;;;;;;9.05;6.32;;;5.10;99.90;;;;;;4792189;29;20453;-68
2022/04/17 01:29:31;;;;;;;10.43;6.73;;;5.00;99.90;;;;;;5523599;24;20053;-68
2022/04/17 01:36:03;;;;;;;8.45;6.50;;;4.90;99.90;;;;;;4806440;29;20421;-68
2022/04/17 01:38:28;;;;;;;8.48;6.18;;;4.90;99.90;;;;;;4804684;29;20058;-68
2022/04/17 01:40:54;;;;;;;8.57;6.63;;;4.80;99.90;;;;;;4811284;29;20055;-68
2022/04/17 01:43:20;;;;;;;8.27;7.05;;;4.90;99.90;;;;;;4789079;29;20135;-68
2022/04/17 01:45:45;;;;;;;9.95;7.10;;;4.90;99.90;;;;;;4789495;29;20080;-68
2022/04/17 01:48:11;;;;;;;10.45;7.10;;;4.90;99.90;;;;;;4797465;29;20035;-68
2022/04/17 01:50:36;;;;;;;11.27;6.85;;;4.90;99.90;;;;;;4803700;29;20183;-68
2022/04/17 01:53:03;;;;;;;11.48;6.47;;;4.80;99.90;;;;;;4817952;29;20039;-68
2022/04/17 01:55:29;;;;;;;10.25;7.75;;;5.00;99.90;;;;;;4808046;29;20408;-68
2022/04/17 01:57:58;;;;;;;10.75;7.50;;;4.80;99.90;;;;;;4790833;29;20125;-68
2022/04/17 02:12:06;;;;;;;12.15;7.70;;;4.70;99.90;;;;;;4810937;29;20412;-68
2022/04/17 02:14:32;;;;;;;9.25;7.05;;;4.20;99.90;;;;;;4806747;29;20050;-68
2022/04/17 02:17:00;;;;;;;11.38;7.75;;;4.60;99.90;;;;;;4791279;29;20050;-68
2022/04/17 02:19:27;;;;;;;10.13;7.40;;;4.60;99.90;;;;;;4809794;29;20057;-68
2022/04/17 02:21:52;;;;;;;11.52;8.07;;;4.50;99.90;;;;;;4808872;29;20042;-68
2022/04/17 02:24:18;;;;;;;8.63;6.95;;;4.50;99.90;;;;;;4826758;29;20049;-68
2022/04/17 02:26:47;;;;;;;9.63;7.78;;;4.50;99.90;;;;;;4807654;29;20051;-68
2022/04/17 02:29:15;;;;;;;9.80;7.13;;;4.50;99.90;;;;;;4793472;29;20465;-68
2022/04/17 02:31:41;;;;;;;11.70;7.75;;;4.50;99.90;;;;;;4821427;29;20086;-68
2022/04/17 02:34:08;;;;;;;10.40;7.63;;;4.50;99.90;;;;;;4825718;29;20135;-68
2022/04/17 02:36:34;;;;;;;8.85;7.68;;;4.30;99.90;;;;;;4802041;29;20059;-68
2022/04/17 02:39:00;;;;;;;11.50;7.90;;;4.30;99.90;;;;;;4809174;29;20065;-68
2022/04/17 02:41:25;;;;;;;12.00;7.95;;;4.30;99.90;;;;;;4815913;29;20054;-68
2022/04/17 02:43:51;;;;;;;10.23;7.88;;;4.20;99.90;;;;;;4824221;29;20500;-68
2022/04/17 02:47:42;;;;;;;9.77;8.20;;;4.30;99.90;;;;;;4823685;29;20077;-68
2022/04/17 02:49:02;;;;;;;11.02;7.93;;;4.20;99.90;;;;;;4798900;29;20077;-68
2022/04/17 02:51:28;;;;;;;11.82;8.48;;;4.40;99.90;;;;;;4785768;29;20495;-68
2022/04/17 02:53:54;;;;;;;10.55;7.60;;;4.10;99.90;;;;;;4809340;29;20122;-68
2022/04/17 02:56:19;;;;;;;10.77;7.78;;;4.10;99.90;;;;;;4809802;29;20050;-68
2022/04/17 02:58:45;;;;;;;12.00;9.05;;;4.60;99.90;;;;;;4809650;29;20054;-68
2022/04/17 03:06:42;;;;;;;8.93;7.47;;;4.00;99.90;;;;;;4809576;29;20085;-68
2022/04/17 03:09:15;;;;;;;11.85;7.63;;;3.90;99.90;;;;;;4823715;29;20539;-68
2022/04/17 03:11:46;;;;;;;12.43;8.20;;;3.90;99.90;;;;;;4823913;29;20119;-68
2022/04/17 03:14:15;;;;;;;10.98;7.80;;;4.00;99.90;;;;;;4809498;29;20038;-68
2022/04/17 03:29:36;;;;;;;10.98;8.90;;;3.40;99.90;;;;;;4769185;30;20409;-68
2022/04/17 03:48:38;;;;;;;;;;;;;;;;;;;;;
2022/04/17 04:28:43;;;;;;;;;;;;;;;;;;;;;
2022/04/17 04:30:43;;;;;;;9.60;8.02;;;3.30;99.90;;;;;;4735759;30;19926;-68
2022/04/17 04:37:47;;;;;;;10.80;8.48;;;3.60;99.90;;;;;;4741013;30;20056;-68
2022/04/17 04:44:49;;;;;;;;;;;;;;;;;;;;;
2022/04/17 05:36:33;;;;;;;11.57;9.13;;;4.70;99.90;;;;;;4787835;30;20167;-67
2022/04/17 05:39:49;;;;;;;12.32;8.70;;;4.90;99.90;;;;;;4790603;29;20062;-67
2022/04/17 06:13:30;;;;;;;13.02;9.57;;;6.90;99.90;;;;;;4776182;29;20067;-67
2022/04/17 06:19:39;;;;;;;13.20;8.93;;;6.70;99.90;;;;;;4783112;30;20139;-66
2022/04/17 06:22:31;;;;;;;13.82;9.18;;;6.60;99.90;;;;;;4768837;30;20056;-67
2022/04/17 06:24:57;;;;;;;10.13;9.05;;;6.70;99.90;;;;;;4783311;30;20124;-67
2022/04/17 06:27:25;;;;;;;12.30;9.60;;;6.70;99.90;;;;;;4784310;30;20134;-67
2022/04/17 06:29:51;;;;;;;11.75;9.98;;;6.80;99.90;;;;;;4771846;30;20066;-67
2022/04/17 06:32:18;;;;;;;12.45;9.80;;;6.90;99.90;;;;;;4764701;30;20405;-67
2022/04/17 06:34:43;;;;;;;12.13;9.20;;;7.00;99.90;;;;;;4759101;30;20486;-67
2022/04/17 06:37:10;;;;;;;11.00;9.50;;;7.00;99.90;;;;;;4763079;30;20117;-67
2022/04/17 06:39:35;;;;;;;11.73;9.35;;;7.20;99.90;;;;;;4768470;30;20122;-67
2022/04/17 06:42:01;;;;;;;13.75;9.70;;;7.20;99.90;;;;;;4769467;30;20127;-67
2022/04/17 06:44:26;;;;;;;12.60;9.98;;;7.30;99.90;;;;;;4769230;30;20490;-67
2022/04/17 06:46:54;;;;;;;11.77;9.88;;;7.40;99.90;;;;;;4768632;30;20109;-67
2022/04/17 06:49:20;;;;;;;12.40;9.93;;;7.50;99.90;;;;;;4782820;30;20130;-67
2022/04/17 06:51:45;;;;;;;13.07;10.60;;;7.60;99.90;;;;;;4774960;30;20410;-67
2022/04/17 06:54:17;;;;;;;10.80;9.15;;;7.70;99.90;;;;;;4779494;29;20431;-67
2022/04/17 06:56:42;;;;;;;11.90;9.38;;;7.80;99.90;;;;;;4780669;29;20047;-67
2022/04/17 06:59:09;;;;;;;11.20;9.70;;;7.90;99.90;;;;;;4762421;30;20138;-67
2022/04/17 07:01:35;;;;;;;11.23;9.13;;;8.00;99.90;;;;;;4778240;29;20075;-67
2022/04/17 07:04:00;;;;;;;13.30;9.98;;;8.20;99.90;;;;;;4777213;29;20070;-67
2022/04/17 07:06:26;;;;;;;12.57;10.00;;;8.30;99.90;;;;;;4771019;30;20138;-67
2022/04/17 07:08:52;;;;;;;10.85;9.25;;;8.40;99.90;;;;;;4789541;29;20362;-67
2022/04/17 07:11:19;;;;;;;12.00;9.35;;;8.50;99.90;;;;;;4774294;30;20055;-67
2022/04/17 07:13:45;;;;;;;10.75;8.80;;;8.70;99.90;;;;;;4789512;29;20095;-67
2022/04/17 07:16:12;;;;;;;10.95;9.35;;;8.80;99.90;;;;;;4780471;30;20082;-67
2022/04/17 07:19:02;;;;;;;11.98;9.43;;;8.90;99.90;;;;;;4780534;29;20056;-67
2022/04/17 07:22:05;;;;;;;11.23;9.43;;;9.00;99.90;;;;;;4779464;29;20124;-68
2022/04/17 07:24:57;;;;;;;11.45;9.18;;;9.30;99.90;;;;;;4749572;30;20153;-68
2022/04/17 07:27:23;;;;;;;12.63;8.40;;;9.80;99.90;;;;;;4755924;30;20052;-68
2022/04/17 07:30:10;;;;;;;10.90;9.30;;;9.50;99.90;;;;;;4772212;30;20048;-68
2022/04/17 07:33:05;;;;;;;11.45;8.45;;;9.60;99.90;;;;;;4755812;30;20062;-68
2022/04/17 07:35:34;;;;;;;13.05;7.63;;;9.80;99.90;;;;;;4755935;30;20098;-68
2022/04/17 07:38:02;;;;;;;9.48;8.32;;;9.90;99.90;;;;;;4772156;30;20096;-66
2022/04/17 07:40:33;;;;;;;9.05;7.97;;;10.00;99.90;;;;;;4762535;30;20106;-68
2022/04/17 07:43:05;;;;;;;10.70;7.65;;;10.10;99.90;;;;;;4778377;30;20055;-68
2022/04/17 07:45:32;;;;;;;9.75;7.78;;;10.20;99.90;;;;;;4770257;30;20158;-68
2022/04/17 07:47:59;;;;;;;10.23;7.88;;;10.30;99.90;;;;;;4771554;30;20058;-69
2022/04/17 07:50:54;;;;;;;10.23;7.55;;;10.50;99.90;;;;;;4760085;30;20059;-69
2022/04/17 07:53:21;;;;;;;8.88;7.50;;;10.60;91.90;;;;;;4780083;29;20094;-68
2022/04/17 07:56:36;;;;;;;8.27;6.72;;;10.70;98.30;;;;;;4785567;30;20059;-69
2022/04/17 07:59:02;;;;;;;12.30;7.07;;;10.80;90.90;;;;;;4802435;29;20067;-69
2022/04/17 08:02:01;;;;;;;10.07;7.05;;;10.90;90.10;;;;;;4770043;30;20048;-69
2022/04/17 08:04:27;;;;;;;8.32;7.28;;;11.00;74.50;;;;;;4765359;30;20140;-69
2022/04/17 08:06:54;;;;;;;9.02;7.22;;;11.10;80.50;;;;;;4777090;29;20051;-69
2022/04/17 08:09:22;;;;;;;7.85;6.70;;;11.20;82.60;;;;;;4784722;29;20058;-69
2022/04/17 08:11:51;;;;;;;11.35;7.63;;;11.40;80.60;;;;;;4780766;29;20579;-69
2022/04/17 08:14:21;;;;;;;8.75;7.47;;;11.40;78.10;;;;;;4796311;29;20051;-69
2022/04/17 08:16:47;;;;;;;8.93;7.10;;;11.40;83.10;;;;;;4797126;29;20054;-69
2022/04/17 08:19:13;;;;;;;7.18;6.47;;;11.50;80.00;;;;;;4780826;29;20063;-69
2022/04/17 08:21:40;;;;;;;8.38;6.57;;;11.60;80.10;;;;;;4797742;29;20044;-69
2022/04/17 08:24:06;;;;;;;9.07;7.00;;;11.70;79.10;;;;;;4795047;29;20115;-68
2022/04/17 08:26:32;;;;;;;7.10;6.40;;;11.80;77.00;;;;;;4789027;29;20134;-69
2022/04/17 08:28:58;;;;;;;6.90;6.20;;;11.90;79.20;;;;;;4788400;29;20185;-68
2022/04/17 08:31:23;;;;;;;8.30;6.43;;;12.00;74.40;;;;;;4769348;30;20068;-69
2022/04/17 08:33:49;;;;;;;7.93;5.88;;;12.10;71.00;;;;;;4775129;29;20091;-68
2022/04/17 08:36:14;;;;;;;7.88;5.63;;;12.20;69.60;;;;;;4799778;29;20061;-68
2022/04/17 08:38:42;;;;;;;5.75;4.85;;;12.30;68.60;;;;;;4805802;29;20062;-66
2022/04/17 08:41:10;;;;;;;6.47;4.97;;;12.40;67.70;;;;;;4806599;29;20066;-67
2022/04/17 08:43:37;;;;;;;6.57;5.05;;;12.40;65.90;;;;;;4806103;29;20105;-68
2022/04/17 08:46:03;;;;;;;7.15;5.38;;;12.50;65.60;;;;;;4806985;29;20046;-68
2022/04/17 08:48:31;;;;;;;4.95;4.45;;;12.60;64.40;;;;;;4794869;29;20063;-68
2022/04/17 08:50:57;;;;;;;7.05;5.03;;;12.70;64.90;;;;;;4788692;30;20063;-68
2022/04/17 08:53:25;;;;;;;6.15;4.70;;;12.70;63.70;;;;;;4788582;30;20091;-68
2022/04/17 08:55:51;;;;;;;6.28;4.85;;;12.80;63.80;;;;;;4788627;29;20134;-69
2022/04/17 08:58:17;;;;;;;6.68;5.10;;;12.90;63.30;;;;;;4790328;29;20108;-69
2022/04/17 09:00:43;;;;;;;6.38;5.60;;;13.00;62.00;;;;;;4772056;30;20063;-68
2022/04/17 09:03:09;;;;;;;6.72;5.30;;;13.20;62.00;;;;;;4768197;30;20063;-69
2022/04/17 09:05:38;;;;;;;9.43;5.50;;;13.10;62.00;;;;;;4755514;30;20506;-69
2022/04/17 09:08:22;;;;;;;6.72;5.50;;;13.10;61.10;;;;;;4760152;30;20056;-68
2022/04/17 09:10:53;;;;;;;7.70;5.55;;;13.20;61.00;;;;;;4776814;30;20055;-68
2022/04/17 09:13:27;;;;;;;5.90;5.30;;;13.20;61.70;;;;;;4798654;29;20401;-68
2022/04/17 09:15:53;;;;;;;6.57;5.60;;;13.30;61.30;;;;;;4783545;29;20042;-68
2022/04/17 09:18:19;;;;;;;7.57;6.13;;;13.30;60.70;;;;;;4798158;29;20098;-69
2022/04/17 09:20:55;;;;;;;5.72;5.18;;;13.40;61.20;;;;;;4772280;30;20063;-69
2022/04/17 09:26:57;;;;;;;6.70;6.00;;;13.60;60.70;;;;;;4788502;29;20065;-69
2022/04/17 09:29:28;;;;;;;6.10;5.30;;;13.70;60.40;;;;;;4805560;29;20065;-69
2022/04/17 09:31:58;;;;;;;6.43;5.47;;;13.70;61.70;;;;;;4799745;29;20106;-69
2022/04/17 09:34:25;;;;;;;6.55;5.85;;;13.80;62.30;;;;;;4793071;29;20073;-69
2022/04/17 09:37:00;;;;;;;8.40;5.85;;;13.80;61.70;;;;;;4788223;30;20208;-70
2022/04/17 09:39:33;;;;;;;9.02;6.05;;;13.90;62.60;;;;;;4772355;29;20082;-69
2022/04/17 09:42:25;;;;;;;7.57;6.10;;;13.90;62.20;;;;;;4800196;29;20055;-70
2022/04/17 09:44:54;;;;;;;7.93;6.22;;;13.90;60.90;;;;;;4819336;29;20046;-69
2022/04/17 09:47:38;;;;;;;6.22;5.60;;;14.00;61.80;;;;;;4783219;29;20051;-70
2022/04/17 09:50:08;;;;;;;5.78;5.28;;;14.10;59.90;;;;;;4780512;29;20063;-68
2022/04/17 09:52:40;;;;;;;6.22;5.20;;;14.10;59.70;;;;;;4779386;29;20062;-69
2022/04/17 09:55:07;;;;;;;6.07;5.47;;;14.20;59.50;;;;;;4805842;29;20062;-69
2022/04/17 09:57:41;;;;;;;7.10;6.20;;;14.30;60.20;;;;;;4788828;29;20131;-69
2022/04/17 10:00:06;;;;;;;8.82;6.57;;;14.30;60.10;;;;;;4800027;29;20451;-69
2022/04/17 10:02:33;;;;;;;8.25;5.78;;;14.40;60.20;;;;;;4788137;29;20138;-70
2022/04/17 10:05:00;;;;;;;6.93;5.65;;;14.50;60.00;;;;;;4787927;29;20062;-70
2022/04/17 10:07:26;;;;;;;6.65;5.22;;;14.50;58.80;;;;;;4771213;29;20059;-69
2022/04/17 10:09:51;;;;;;;6.03;5.43;;;14.60;58.00;;;;;;4792100;29;20381;-70
2022/04/17 10:12:28;;;;;;;6.03;5.40;;;14.70;59.00;;;;;;4795252;29;20055;-70
2022/04/17 10:14:55;;;;;;;7.00;5.63;;;14.70;58.60;;;;;;4777469;29;20055;-70
2022/04/17 10:17:23;;;;;;;5.57;5.00;;;14.80;59.00;;;;;;4788101;29;20138;-70
2022/04/17 10:19:49;;;;;;;6.70;5.50;;;14.90;57.60;;;;;;4789823;29;20493;-68
2022/04/17 10:22:20;;;;;;;6.10;5.25;;;14.90;58.30;;;;;;4789821;29;20135;-69
2022/04/17 10:24:53;;;;;;;5.95;5.25;;;15.00;58.30;;;;;;4788230;29;20099;-69
2022/04/17 10:38:18;;;;;;;5.38;4.63;;;15.50;53.50;;;;;;4798049;29;20103;-67
2022/04/17 10:44:03;;;;;;;5.90;4.80;;;15.50;54.20;;;;;;4792711;29;20042;-68
2022/04/17 10:46:28;;;;;;;5.32;4.30;;;15.50;54.10;;;;;;4760942;29;20300;-69
2022/04/17 10:48:58;;;;;;;5.15;3.90;;;15.50;52.70;;;;;;4777746;29;20657;-68
2022/04/17 10:51:30;;;;;;;6.05;4.32;;;15.50;51.60;;;;;;4801305;29;20050;-68
2022/04/17 10:54:07;;;;;;;5.73;4.20;;;15.60;51.80;;;;;;4803892;29;22016;-69
2022/04/17 10:56:38;;;;;;;3.95;3.60;;;15.70;52.50;;;;;;4801472;29;20353;-70
2022/04/17 10:59:30;;;;;;;5.13;4.03;;;15.80;51.80;;;;;;4791275;29;20063;-67
2022/04/17 11:02:21;;;;;;;5.72;4.60;;;15.90;51.00;;;;;;4774170;30;20484;-67
2022/04/17 11:04:55;;;;;;;4.10;3.70;;;16.10;51.80;;;;;;4792541;29;20062;-67
2022/04/17 11:07:46;;;;;;;6.05;4.55;;;16.10;50.80;;;;;;4778798;29;20517;-67
2022/04/17 11:10:26;;;;;;;5.13;4.22;;;16.10;51.80;;;;;;4784976;29;20140;-69
2022/04/17 11:12:57;;;;;;;5.40;4.15;;;16.10;49.70;;;;;;4797718;29;20057;-68
2022/04/17 11:15:47;;;;;;;6.57;4.20;;;16.20;50.20;;;;;;4776682;29;20050;-68
2022/04/17 11:18:20;;;;;;;5.13;4.63;;;16.20;49.70;;;;;;4794725;29;20050;-68
2022/04/17 11:20:52;;;;;;;5.55;4.65;;;16.30;51.10;;;;;;4788751;29;20054;-68
2022/04/17 11:23:49;;;;;;;5.28;4.78;;;16.40;49.90;;;;;;4788547;29;20053;-67
2022/04/17 11:26:15;;;;;;;5.15;4.65;;;16.40;47.70;;;;;;4799163;29;21402;-68
2022/04/17 11:28:41;;;;;;;6.93;4.68;;;16.70;50.70;;;;;;4796340;29;20062;-69
2022/04/17 11:31:07;;;;;;;6.13;5.00;;;16.50;51.30;;;;;;4796316;29;20051;-69
2022/04/17 11:33:33;;;;;;;4.93;4.45;;;16.60;51.50;;;;;;4770633;29;20051;-68
2022/04/17 11:35:58;;;;;;;5.50;4.80;;;16.50;50.50;;;;;;4798512;29;20400;-69
2022/04/17 11:38:24;;;;;;;5.97;4.88;;;16.50;51.00;;;;;;4800674;29;20544;-68
2022/04/17 11:40:54;;;;;;;5.00;4.60;;;16.50;50.90;;;;;;4792567;29;20134;-68
2022/04/17 11:43:21;;;;;;;5.85;4.22;;;16.70;51.00;;;;;;4791652;29;20134;-69
2022/04/17 11:45:47;;;;;;;5.80;4.63;;;16.80;50.20;;;;;;4792083;29;20063;-68
2022/04/17 11:48:28;;;;;;;5.95;4.90;;;16.90;50.70;;;;;;4797416;29;20056;-68
2022/04/17 11:55:20;;;;;;;6.63;4.43;;;16.80;49.60;;;;;;4781865;29;20055;-68
2022/04/17 11:58:24;;;;;;;4.47;4.07;;;16.90;49.80;;;;;;4781577;29;20123;-68
2022/04/17 12:08:22;;;;;;;4.88;4.20;;;16.90;45.90;;;;;;4789893;29;19924;-68
2022/04/17 12:10:53;;;;;;;5.30;4.47;;;17.10;48.70;;;;;;4747096;30;20075;-67
2022/04/17 12:13:24;;;;;;;7.78;5.00;;;17.30;48.90;;;;;;4738986;30;20056;-69
2022/04/17 12:16:02;;;;;;;5.22;4.68;;;17.30;47.50;;;;;;4789245;29;20059;-68
2022/04/17 12:18:30;;;;;;;5.10;4.68;;;17.30;46.50;;;;;;4765342;30;20557;-68
2022/04/17 12:21:06;;;;;;;7.32;5.05;;;17.40;47.70;;;;;;4787523;29;20046;-67
2022/04/17 12:23:56;;;;;;;6.05;5.38;;;17.30;45.90;;;;;;4805042;29;20061;-68
2022/04/17 12:26:50;;;;;;;5.82;5.22;;;17.40;47.80;;;;;;4773838;29;20410;-68
2022/04/17 12:41:27;;;;;;;5.85;4.78;;;17.30;47.90;;;;;;4788892;30;20100;-69
2022/04/17 12:43:56;;;;;;;5.88;5.28;;;17.40;47.70;;;;;;4795617;29;20089;-68
2022/04/17 12:46:29;;;;;;;5.95;5.28;;;17.80;48.40;;;;;;4802246;29;20085;-68
2022/04/17 12:49:11;;;;;;;6.28;5.22;;;17.70;47.70;;;;;;4789906;29;20408;-67
2022/04/17 12:51:56;;;;;;;6.47;5.33;;;17.80;46.40;;;;;;4805572;29;20070;-67
2022/04/17 12:54:37;;;;;;;7.05;5.75;;;17.80;45.70;;;;;;4804112;29;20039;-68
2022/04/17 12:57:21;;;;;;;6.50;5.90;;;17.80;44.40;;;;;;4796282;29;20071;-68
2022/04/17 12:59:55;;;;;;;6.82;6.15;;;17.90;46.00;;;;;;4795339;29;20055;-67
2022/04/17 13:02:28;;;;;;;6.65;6.05;;;17.90;46.00;;;;;;4802470;29;20103;-68
2022/04/17 13:05:04;;;;;;;6.05;5.45;;;17.80;45.20;;;;;;4779130;29;20039;-68
2022/04/17 13:08:03;;;;;;;8.75;5.72;;;17.90;45.50;;;;;;4792809;29;20055;-68
2022/04/17 13:10:33;;;;;;;7.75;5.65;;;17.90;44.10;;;;;;4757321;29;20055;-68
2022/04/17 13:12:58;;;;;;;6.90;6.13;;;18.10;46.10;;;;;;4782117;29;20043;-68
2022/04/17 13:15:59;;;;;;;8.35;5.97;;;18.10;45.40;;;;;;4771905;30;20426;-67
2022/04/17 13:18:25;;;;;;;7.30;5.97;;;18.10;44.90;;;;;;4787847;29;20406;-68
2022/04/17 13:21:01;;;;;;;6.30;5.70;;;18.00;44.70;;;;;;4771967;30;20061;-68
2022/04/17 13:23:59;;;;;;;6.60;5.63;;;18.00;45.40;;;;;;4771214;29;20062;-69
2022/04/17 13:26:50;;;;;;;8.25;6.78;;;18.20;47.10;;;;;;4802992;29;20055;-68
2022/04/17 13:30:07;;;;;;;7.05;6.35;;;18.30;45.80;;;;;;4786489;29;20045;-68
2022/04/17 13:33:00;;;;;;;7.32;5.75;;;18.30;46.10;;;;;;4802471;29;20101;-69
2022/04/17 13:35:25;;;;;;;6.55;5.18;;;18.30;43.40;;;;;;4786447;29;20078;-67
2022/04/17 13:38:13;;;;;;;5.95;5.20;;;18.40;44.70;;;;;;4780292;29;20055;-67
2022/04/17 13:40:42;;;;;;;6.80;5.40;;;18.30;43.10;;;;;;4798290;29;20062;-67
2022/04/17 13:43:07;;;;;;;6.22;5.05;;;18.20;43.30;;;;;;4802301;29;20725;-69
2022/04/17 13:49:35;;;;;;;5.93;5.28;;;18.30;43.80;;;;;;4799755;29;20131;-67
2022/04/17 13:52:01;;;;;;;6.57;4.78;;;18.20;42.70;;;;;;4768502;29;20146;-68
2022/04/17 13:54:31;;;;;;;8.88;5.40;;;18.20;43.40;;;;;;4786269;29;20051;-68
2022/04/17 13:56:58;;;;;;;6.00;5.40;;;18.10;42.90;;;;;;4788092;29;20529;-68
2022/04/17 13:59:24;;;;;;;6.18;5.57;;;18.20;44.40;;;;;;4805317;29;20537;-67
2022/04/17 14:01:53;;;;;;;6.47;5.25;;;18.30;43.30;;;;;;4805703;29;20084;-68
2022/04/17 14:04:44;;;;;;;6.65;5.15;;;18.30;42.70;;;;;;4778664;29;20129;-69
2022/04/17 14:08:00;;;;;;;7.20;5.75;;;18.30;42.20;;;;;;4798570;29;20059;-69
2022/04/17 14:10:29;;;;;;;7.25;5.20;;;18.30;42.60;;;;;;4792796;29;20049;-70
2022/04/17 14:13:13;;;;;;;5.57;5.07;;;18.30;43.10;;;;;;4779107;29;20052;-69
2022/04/17 14:15:49;;;;;;;5.97;5.07;;;18.40;42.80;;;;;;4793051;29;20050;-68
2022/04/17 14:18:20;;;;;;;6.70;5.30;;;18.30;42.30;;;;;;4775867;30;20043;-70
2022/04/17 14:20:47;;;;;;;6.65;5.47;;;18.30;43.60;;;;;;4774842;30;20055;-70
2022/04/17 14:23:13;;;;;;;6.63;5.72;;;18.50;43.20;;;;;;4774578;29;20055;-70
2022/04/17 14:25:41;;;;;;;6.82;5.20;;;18.50;43.60;;;;;;4807436;29;20050;-70
2022/04/17 14:28:07;;;;;;;5.57;4.97;;;18.50;44.00;;;;;;4785050;30;20067;-69
2022/04/17 14:31:23;;;;;;;6.82;5.28;;;18.70;44.70;;;;;;4800554;29;20051;-71
2022/04/17 14:33:50;;;;;;;5.03;4.53;;;18.70;41.20;;;;;;4781716;29;20515;-71
2022/04/17 14:36:41;;;;;;;5.82;5.07;;;18.70;42.50;;;;;;4784507;29;20511;-70
2022/04/17 14:39:10;;;;;;;5.00;4.45;;;18.70;40.70;;;;;;4804128;29;20114;-67
2022/04/17 14:42:03;;;;;;;5.05;4.55;;;18.60;41.50;;;;;;4775497;29;20057;-67
2022/04/17 14:44:58;;;;;;;5.88;4.68;;;18.60;42.30;;;;;;4765076;29;20043;-68
2022/04/17 14:47:40;;;;;;;6.50;4.68;;;18.60;41.80;;;;;;4786097;29;20162;-66
2022/04/17 14:50:10;;;;;;;5.45;4.43;;;18.60;42.30;;;;;;4775098;29;20055;-67
2022/04/17 15:00:48;;;;;;;4.93;4.00;;;18.60;40.30;;;;;;4791513;29;20067;-70
2022/04/17 15:03:42;;;;;;;5.53;3.92;;;18.60;42.50;;;;;;4789088;29;20062;-68
2022/04/17 15:06:33;;;;;;;5.35;4.85;;;18.60;41.10;;;;;;4770541;30;20066;-68
2022/04/17 15:09:00;;;;;;;4.18;3.50;;;18.60;41.50;;;;;;4790423;29;20493;-69
2022/04/17 15:11:30;;;;;;;5.72;4.10;;;18.70;41.80;;;;;;4784331;29;20524;-69
2022/04/17 15:13:56;;;;;;;4.70;4.22;;;18.70;41.50;;;;;;4792557;29;20050;-68
2022/04/17 15:16:35;;;;;;;5.82;4.45;;;18.70;41.10;;;;;;4804536;29;20055;-67
2022/04/17 15:19:00;;;;;;;4.95;4.22;;;18.60;40.30;;;;;;4773874;30;20058;-67
2022/04/17 15:21:51;;;;;;;4.57;3.50;;;18.60;41.20;;;;;;4806196;29;20051;-69
2022/04/17 15:28:23;;;;;;;3.90;3.28;;;18.30;39.90;;;;;;4789640;29;20042;-68
2022/04/17 15:30:48;;;;;;;4.63;3.75;;;18.40;41.30;;;;;;4790181;29;20059;-68
2022/04/17 15:33:14;;;;;;;3.63;3.33;;;18.50;41.20;;;;;;4788123;30;20059;-69
2022/04/17 15:35:40;;;;;;;6.25;4.72;;;18.50;40.90;;;;;;4796471;29;20480;-70
2022/04/17 15:38:06;;;;;;;4.90;3.38;;;18.50;39.60;;;;;;4776857;29;20069;-69
2022/04/17 15:40:38;;;;;;;4.75;3.92;;;18.50;38.90;;;;;;4808064;29;20051;-69
2022/04/17 15:47:54;;;;;;;3.60;2.67;;;18.40;38.60;;;;;;4795411;29;20126;-68
2022/04/17 15:48:38;;;;;;;3.95;2.72;;;;;;;;;;4791195;29;20054;-69
2022/04/17 15:51:04;;;;;;;3.38;2.88;;;;;;;;;;4806459;29;20055;-70
2022/04/17 15:53:30;;;;;;;3.22;2.50;;;;;;;;;;4806114;29;20126;-69
2022/04/17 15:55:56;;;;;;;3.67;2.58;;;;;;;;;;4806053;29;20073;-70
2022/04/17 15:58:22;;;;;;;4.88;3.15;;;;;;;;;;4788320;29;20560;-70
2022/04/17 16:00:48;;;;;;;2.63;2.30;;;;;;;;;;4807784;29;20134;-70
2022/04/17 16:03:14;;;;;;;2.95;2.60;;;;;;;;;;4776675;29;20078;-69
2022/04/17 16:05:41;;;;;;;2.67;2.13;;;;;;;;;;4769728;30;20047;-69
2022/04/17 16:08:08;;;;;;;3.80;2.10;;;;;;;;;;4758206;30;20090;-70
2022/04/17 16:10:34;;;;;;;2.70;2.40;;;;;;;;;;4789442;29;20116;-71
2022/04/17 16:13:01;;;;;;;2.83;2.33;;;;;;;;;;4772970;30;20051;-70
2022/04/17 16:15:27;;;;;;;2.50;2.30;;;;;;;;;;4789355;29;20059;-70
2022/04/17 16:17:53;;;;;;;2.85;2.58;;;18.70;37.50;;;;;;4758501;29;20059;-69
2022/04/17 16:20:26;;;;;;;2.08;1.80;;;18.50;38.20;;;;;;4780861;29;20104;-69
2022/04/17 16:22:55;;;;;;;1.98;1.80;;;18.50;38.20;;;;;;4788049;29;20055;-72
2022/04/17 16:25:47;;;;;;;3.00;2.22;;;18.50;37.70;;;;;;4776812;30;20092;-71
2022/04/17 16:28:13;;;;;;;2.97;1.83;;;18.30;38.20;;;;;;4757802;30;20417;-69
2022/04/17 16:30:42;;;;;;;3.13;1.70;;;18.30;39.00;;;;;;4758658;30;20051;-70
2022/04/17 16:36:34;;;;;;;2.97;2.20;;;18.20;37.30;;;;;;4787284;29;20089;-71
2022/04/17 16:39:03;;;;;;;2.85;1.60;;;18.10;38.70;;;;;;4787471;29;20115;-70
2022/04/17 16:42:01;;;;;;;3.13;1.90;;;18.00;38.30;;;;;;4758388;30;20051;-72
2022/04/17 16:44:27;;;;;;;2.78;1.40;;;17.90;37.60;;;;;;4786925;29;20481;-69
2022/04/17 16:47:01;;;;;;;2.97;2.25;;;17.90;38.80;;;;;;4759421;30;20047;-71
2022/04/17 16:49:53;;;;;;;1.73;1.63;;;17.80;39.20;;;;;;4787878;29;20093;-68
2022/04/17 16:52:22;;;;;;;2.22;1.65;;;18.10;38.60;;;;;;4770313;29;20082;-70
2022/04/17 16:55:17;;;;;;;2.60;2.20;;;17.60;38.70;;;;;;4775767;29;20043;-70
2022/04/17 17:01:54;;;;;;;2.50;1.80;;;17.40;39.20;;;;;;4806495;29;20041;-70
2022/04/17 17:04:47;;;;;;;2.20;1.60;;;17.60;39.30;;;;;;4775329;29;20137;-71
2022/04/17 17:07:16;;;;;;;2.15;1.60;;;17.30;38.20;;;;;;4772261;30;20051;-70
2022/04/17 17:09:43;;;;;;;2.58;1.55;;;17.10;38.70;;;;;;4772430;30;20051;-70
2022/04/17 17:12:09;;;;;;;2.55;1.45;;;17.50;38.80;;;;;;4772096;30;20497;-69
2022/04/17 17:14:35;;;;;;;1.73;1.50;;;17.60;39.70;;;;;;4771860;29;20062;-70
2022/04/17 17:21:33;;;;;;;2.55;1.80;;;17.70;38.40;;;;;;4806207;29;20144;-70
2022/04/17 17:24:00;;;;;;;1.80;1.70;;;17.80;38.60;;;;;;4773958;29;20050;-69
2022/04/17 17:26:26;;;;;;;4.00;1.52;;;17.50;39.30;;;;;;4790671;29;20073;-70
2022/04/17 17:28:57;;;;;;;2.03;1.45;;;17.40;40.00;;;;;;4804598;29;20484;-70
2022/04/17 17:31:52;;;;;;;1.80;1.50;;;17.00;40.20;;;;;;4790132;29;20054;-70
2022/04/17 17:34:47;;;;;;;1.88;1.40;;;17.00;40.30;;;;;;4804660;29;20062;-70
2022/04/17 17:38:09;;;;;;;2.08;1.73;;;16.90;40.30;;;;;;4772319;29;20043;-70
2022/04/17 17:40:39;;;;;;;4.32;1.60;;;16.70;40.60;;;;;;4775051;29;20051;-70
2022/04/17 17:43:32;;;;;;;1.88;1.60;;;16.60;40.80;;;;;;4774502;29;20153;-68
2022/04/17 17:46:27;;;;;;;1.98;1.55;;;16.40;41.10;;;;;;4775044;29;20069;-70
2022/04/17 17:52:59;;;;;;;3.20;2.17;;;15.90;42.00;;;;;;4787741;30;20042;-70
2022/04/17 17:55:31;;;;;;;2.15;1.95;;;15.60;42.40;;;;;;4771557;30;20059;-70
2022/04/17 17:58:01;;;;;;;2.38;1.88;;;15.10;42.70;;;;;;4771339;30;20054;-70
2022/04/17 18:04:01;;;;;;;2.50;2.30;;;15.30;43.80;;;;;;4773437;29;20055;-69
2022/04/17 18:14:29;;;;;;;3.50;2.05;;;14.90;44.10;;;;;;4771292;30;20053;-70
2022/04/17 18:16:41;;;;;;;5.63;2.22;;;14.60;45.70;;;;;;4754518;29;20125;-69
2022/04/17 18:19:31;;;;;;;;;;;14.50;45.60;;;;;;4762521;30;20524;-68
2022/04/17 18:30:56;;;;;;;4.93;2.28;;;14.10;47.10;;;;;;4778161;29;20115;-70
2022/04/17 18:33:47;;;;;;;3.25;2.33;;;13.90;47.60;;;;;;4763752;30;20581;-70
2022/04/17 18:36:13;;;;;;;3.42;2.15;;;13.70;48.10;;;;;;4766239;30;20055;-69
2022/04/17 18:39:13;;;;;;;3.85;2.53;;;13.60;48.20;;;;;;4769048;30;20565;-69
2022/04/17 19:03:20;;;;;;;3.75;2.63;;;12.60;50.90;;;;;;4750328;30;20147;-69
2022/04/17 19:29:02;;;;;;;2.55;2.30;;;11.80;52.60;;;;;;4758301;30;20065;-70
2022/04/17 19:53:06;;;;;;;6.00;4.38;;;11.10;53.80;;;;;;5566104;24;20073;-69
2022/04/17 19:55:32;;;;;;;7.65;4.28;;;11.10;53.90;;;;;;4795561;29;20130;-69
2022/04/17 20:02:11;;;;;;;7.03;4.57;;;10.90;54.30;;;;;;4807336;29;20061;-69
2022/04/17 20:04:38;;;;;;;7.00;5.70;;;10.80;54.30;;;;;;4789778;29;20058;-70
2022/04/17 20:07:05;;;;;;;8.80;6.65;;;10.70;54.70;;;;;;4794212;29;20060;-69
2022/04/17 20:09:30;;;;;;;10.35;7.68;;;10.60;55.10;;;;;;4790813;29;20055;-69
2022/04/17 20:12:22;;;;;;;13.52;8.93;;;10.60;55.40;;;;;;4794757;29;20104;-70
2022/04/17 20:14:51;;;;;;;13.10;9.48;;;10.50;55.50;;;;;;4773943;29;20086;-70
2022/04/17 20:17:32;;;;;;;11.68;8.60;;;10.60;56.40;;;;;;4791428;29;20086;-70
2022/04/17 20:19:57;;;;;;;11.82;9.15;;;10.40;55.90;;;;;;4807650;29;20135;-71
2022/04/17 20:22:24;;;;;;;14.70;9.25;;;10.40;56.20;;;;;;4775140;29;20090;-71
2022/04/17 20:24:49;;;;;;;11.88;9.00;;;10.30;56.30;;;;;;4774765;29;20070;-70
2022/04/17 20:27:16;;;;;;;11.95;8.82;;;10.40;56.80;;;;;;4775429;29;20149;-67